KOZR/OZR METAR and TAF weather

Enter ICAO airport designator
Station Type Date Time Source
KOZR METAR 2020/06/03 22:13 UTC NOAA

KOZR 032213Z AUTO 19008KT 10SM FEW085 FEW110 OVC150 22/18 A2997 RMK AO2 LTG DSNT S-SW PRESFR SLP149


Station Type Date Time Source
KOZR Decoded METAR 2020/06/03 22:13 UTC NOAA

Cairns Army Air Field / Ozark, AL, United States (KOZR) 31-17N 085-43W
Jun 03, 2020 - 06:13 PM EDT / 2020.06.03 2213 UTC
Wind: from the S (190 degrees) at 9 MPH (8 KT):0
Visibility: 10 mile(s):0
Sky conditions: overcast
Weather: Lightning observed
Temperature: 71 F (22 C)
Dew Point: 64 F (18 C)
Relative Humidity: 78%
Pressure (altimeter): 29.97 in. Hg (1014 hPa)
Pressure tendency: falling rapidly
ob: KOZR 032213Z AUTO 19008KT 10SM FEW085 FEW110 OVC150 22/18 A2997 RMK AO2 LTG DSNT S-SW PRESFR SLP149
cycle: 22

Station Type Date Time Source
KOZR TAF 2020/06/03 16:17 UTC NOAA

TAF KOZR 031600Z 0316/0422 15006KT 9999 FEW150 BKN180 OVC200 QNH3002INS
BECMG 0317/0318 VRB06KT 8000 -SHRA VCTS BKN030CB QNH2996INS
TEMPO 0321/0400 VRB15G25KT 6000 -TSRA BKN010CB OVC020
BECMG 0400/0401 16009KT 8000 -SHRA BKN020 OVC040 QNH2996INS
BECMG 0405/0406 18005KT 9999 NSW OVC015 QNH2995INS
BECMG 0415/0416 VRB06KT 9000 -SHRA BKN030 QNH2995INS TX31/0320Z TN22/0408Z

Example: see airport list